Flight Track Log - Related Links

Times and Time Zones

All times are in EDT time to prevent confusion due to time zone crossing. See the N3730B flight status page for this flight to view local times or setup timezone preferences in your user account.

Time Position Orientation Groundspeed Altitude Reporting Facility
EDT Latitude Longitude Course Direction KTS MPH feet Rate Location/Type
Thu 07:01:34 AM 39.1833 -76.7500 286° West 197 227 2,100  Level Potomac TRACON
Thu 07:06:25 AM 39.2858 -77.2192 301° West 372 428 13,500 2,369 Climbing Washington Center
Thu 07:07:26 AM 39.3406 -77.3386 300° West 402 463 16,000 2,593 Climbing Washington Center
Thu 07:08:23 AM 39.3969 -77.4633 300° West 407 468 18,600 1,729 Climbing Washington Center
Thu 07:09:24 AM 39.4553 -77.5939 292° West 412 474 19,400 1,636 Climbing Washington Center
Thu 07:10:24 AM 39.4989 -77.7322 291° West 412 474 21,900 2,182 Climbing Washington Center
Thu 07:11:25 AM 39.5419 -77.8761 291° West 417 480 23,800 1,900 Climbing Washington Center
Thu 07:12:24 AM 39.5850 -78.0256 292° West 435 501 25,700 1,824 Climbing Washington Center
Thu 07:13:53 AM 39.6511 -78.2347 291° West 437 503 28,300 1,893 Climbing Cleveland Center
Thu 07:14:53 AM 39.6936 -78.3817 290° West 443 510 30,400 1,850 Climbing Cleveland Center
Thu 07:15:53 AM 39.7403 -78.5447 290° West 443 510 32,000 800 Climbing Cleveland Center
Thu 07:16:53 AM 39.7736 -78.6625 291° West 443 510 32,000  Level Cleveland Center
Thu 07:17:53 AM 39.8200 -78.8236 291° West 438 504 32,000 -250 Level Cleveland Center
Thu 07:18:53 AM 39.8619 -78.9683 293° West 438 504 31,500 -750 Descending Cleveland Center
Thu 07:19:53 AM 39.9097 -79.1189 290° West 438 504 30,500 -750 Descending Cleveland Center
Thu 07:20:53 AM 39.9492 -79.2642 296° West 438 504 30,000 -250 Descending Cleveland Center
Thu 07:21:53 AM 40.0006 -79.4042 303° West 438 504 30,000  Level Cleveland Center
Thu 07:22:53 AM 40.0667 -79.5358 304° West 433 498 30,000  Level Cleveland Center
Thu 07:23:53 AM 40.1344 -79.6653 304° West 433 498 30,000  Level Cleveland Center
Thu 07:24:53 AM 40.2019 -79.7975 303° West 438 504 30,000  Level Cleveland Center
Thu 07:25:53 AM 40.2675 -79.9300 303° West 438 504 30,000  Level Cleveland Center
Thu 07:26:53 AM 40.3328 -80.0628 303° West 433 498 30,000  Level Cleveland Center
Thu 07:27:53 AM 40.3981 -80.1933 303° West 439 505 30,000  Level Cleveland Center
Thu 07:28:53 AM 40.4650 -80.3267 304° West 439 505 30,000 -100 Level Cleveland Center
Thu 07:29:53 AM 40.5403 -80.4711 303° West 434 499 29,800 -600 Descending Cleveland Center
Thu 07:30:53 AM 40.6069 -80.6050 303° West 434 499 28,800 -900 Descending Cleveland Center
Thu 07:31:53 AM 40.6736 -80.7419 303° West 439 505 28,000 -400 Descending Cleveland Center
Thu 07:32:53 AM 40.7381 -80.8736 303° West 439 505 28,000  Level Cleveland Center
Thu 07:33:53 AM 40.8044 -81.0083 303° West 434 499 28,000  Level Cleveland Center
Thu 07:34:53 AM 40.8725 -81.1489 302° West 439 505 28,000 -50 Level Cleveland Center
Thu 07:35:53 AM 40.9364 -81.2839 303° West 439 505 27,900 -550 Descending Cleveland Center
Thu 07:36:53 AM 41.0022 -81.4194 302° West 439 505 26,900 -900 Descending Cleveland Center
Thu 07:37:53 AM 41.0617 -81.5442 302° West 439 505 26,100 -950 Descending Cleveland Center
Thu 07:38:53 AM 41.1333 -81.6969 302° West 439 505 25,000 -1,050 Descending Cleveland Center
Thu 07:39:53 AM 41.1986 -81.8333 303° West 439 505 24,000 -500 Descending Cleveland Center
Thu 07:40:53 AM 41.2658 -81.9700 300° West 439 505 24,000  Level Cleveland Center
Thu 07:41:53 AM 41.3264 -82.1094 309° West 434 499 24,000  Level Cleveland Center
Thu 07:42:53 AM 41.4019 -82.2358 308° West 434 499 24,000 -650 Level Cleveland Center
Thu 07:43:53 AM 41.4769 -82.3653 310° West 434 499 22,700 -2,200 Descending Cleveland Center
Thu 07:44:53 AM 41.5503 -82.4839 308° West 429 494 19,600 -3,050 Descending Cleveland Center
Thu 07:45:53 AM 41.6169 -82.5997 310° West 417 480 16,600 -2,923 Descending Cleveland Center
Thu 07:46:50 AM 41.6839 -82.7075 310° West 382 440 13,900 -2,390 Descending Cleveland Center
Thu 07:47:51 AM 41.7467 -82.8069 318° Northwest 354 407 11,900 -1,552 Descending Cleveland Center
Thu 07:48:46 AM 41.8078 -82.8814 308° West 323 372 10,900 -1,230 Descending Cleveland Center
Thu 07:49:53 AM 41.8600 -82.9697 303° West 265 305 9,400 -1,512 Descending Cleveland Center
Thu 07:50:53 AM 41.8981 -83.0492 294° West 264 304 7,700 -1,600 Descending Cleveland Center
Thu 07:51:53 AM 41.9272 -83.1369 297° West 254 292 6,200 -850 Descending Cleveland Center
Thu 07:52:53 AM 41.9547 -83.2106 296° West 254 292 6,000 -400 Descending Cleveland Center
Thu 07:53:53 AM 41.9881 -83.3042 294° West 249 287 5,400 -971 Descending Cleveland Center
Thu 07:54:38 AM 42.0094 -83.3694 328° Northwest 238 274 4,300 -1,015 Descending Cleveland Center
Thu 07:56:03 AM 42.0728 -83.4225 11° North 187 215 3,200 -781 Descending Cleveland Center
Thu 07:57:04 AM 42.1189 -83.4106 28° Northeast 169 194 2,400 -826 Descending Cleveland Center
Thu 07:57:52 AM 42.1486 -83.3894 31° Northeast 140 161 1,700 -816 Descending Cleveland Center
Thu 07:58:47 AM 42.1783 -83.3656 15° North 140 161 1,000 -764 Descending Cleveland Center
Thu 08:06:32 AM 42.9875 -83.0732 15° North  Level Estimated

Login

Don't have an account? Register now (free) for customized features, flight alerts, and more!